Time,TemperatureF,DewpointF,PressureIn,WindDirection,WindDirectionDegrees,WindSpeedMPH,WindSpeedGustMPH,Humidity,HourlyPrecipIn,Conditions,Clouds,dailyrainin,SolarRadiationWatts/m^2,SoftwareType,DateUTC
2013-01-18 00:02:00,47.0,28.0,-100.00,NNE,18,6.0,10.0,48,0.00,,,0.00,0.000000,,2013-01-18 06:02:00,
2013-01-18 00:12:00,47.0,28.0,-100.00,NNE,18,6.0,10.0,48,0.00,,,0.00,0.000000,,2013-01-18 06:12:00,
2013-01-18 00:22:00,47.0,28.0,-100.00,NNE,18,6.0,10.0,48,0.00,,,0.00,0.000000,,2013-01-18 06:22:00,
2013-01-18 00:32:00,47.0,28.0,-100.00,NNE,18,6.0,10.0,48,0.00,,,0.00,0.000000,,2013-01-18 06:32:00,
2013-01-18 01:02:00,46.0,28.0,-100.00,NNE,27,7.0,10.0,49,0.00,,,0.00,0.000000,,2013-01-18 07:02:00,
2013-01-18 01:12:00,46.0,28.0,-100.00,NNE,27,7.0,10.0,49,0.00,,,0.00,0.000000,,2013-01-18 07:12:00,
2013-01-18 01:22:00,46.0,28.0,-100.00,NNE,27,7.0,10.0,49,0.00,,,0.00,0.000000,,2013-01-18 07:22:00,
2013-01-18 01:32:00,46.0,28.0,-100.00,NNE,27,7.0,10.0,49,0.00,,,0.00,0.000000,,2013-01-18 07:32:00,
2013-01-18 02:02:00,43.0,28.0,-100.00,NNE,19,5.0,11.0,54,0.00,,,0.00,0.000000,,2013-01-18 08:02:00,
2013-01-18 02:12:00,43.0,28.0,-100.00,NNE,19,5.0,11.0,54,0.00,,,0.00,0.000000,,2013-01-18 08:12:00,
2013-01-18 02:22:00,43.0,28.0,-100.00,NNE,19,5.0,11.0,54,0.00,,,0.00,0.000000,,2013-01-18 08:22:00,
2013-01-18 02:32:00,43.0,28.0,-100.00,NNE,19,5.0,11.0,54,0.00,,,0.00,0.000000,,2013-01-18 08:32:00,
2013-01-18 03:02:00,43.0,28.0,-100.00,NE,36,6.0,8.0,55,0.00,,,0.00,0.000000,,2013-01-18 09:02:00,
2013-01-18 03:12:00,43.0,28.0,-100.00,NE,36,6.0,8.0,55,0.00,,,0.00,0.000000,,2013-01-18 09:12:00,
2013-01-18 03:22:00,43.0,28.0,-100.00,NE,36,6.0,8.0,55,0.00,,,0.00,0.000000,,2013-01-18 09:22:00,
2013-01-18 03:33:00,43.0,28.0,-100.00,NE,36,6.0,8.0,55,0.00,,,0.00,0.000000,,2013-01-18 09:33:00,
2013-01-18 03:53:00,43.0,28.0,-100.00,NE,36,7.0,8.0,56,0.00,,,0.00,0.000000,,2013-01-18 09:53:00,
2013-01-18 04:02:00,43.0,28.0,-100.00,NE,36,7.0,8.0,56,0.00,,,0.00,0.000000,,2013-01-18 10:02:00,
2013-01-18 04:12:00,43.0,28.0,-100.00,NE,36,7.0,8.0,56,0.00,,,0.00,0.000000,,2013-01-18 10:12:00,
2013-01-18 04:22:00,43.0,28.0,-100.00,NE,36,7.0,8.0,56,0.00,,,0.00,0.000000,,2013-01-18 10:22:00,
2013-01-18 04:32:00,43.0,28.0,-100.00,NE,36,7.0,8.0,56,0.00,,,0.00,0.000000,,2013-01-18 10:32:00,
2013-01-18 05:02:00,41.0,28.0,-100.00,NE,41,6.0,8.0,60,0.00,,,0.00,0.000000,,2013-01-18 11:02:00,
2013-01-18 05:12:00,41.0,28.0,-100.00,NE,41,6.0,8.0,60,0.00,,,0.00,0.000000,,2013-01-18 11:12:00,
2013-01-18 05:23:00,41.0,28.0,-100.00,NE,41,6.0,8.0,60,0.00,,,0.00,0.000000,,2013-01-18 11:23:00,
2013-01-18 05:32:00,41.0,28.0,-100.00,NE,41,6.0,8.0,60,0.00,,,0.00,0.000000,,2013-01-18 11:32:00,
2013-01-18 05:53:00,40.0,28.0,-100.00,NE,50,7.0,9.0,62,0.00,,,0.00,0.000000,,2013-01-18 11:53:00,
2013-01-18 06:03:00,40.0,28.0,-100.00,NE,50,7.0,9.0,62,0.00,,,0.00,0.000000,,2013-01-18 12:03:00,
2013-01-18 06:12:00,40.0,28.0,-100.00,NE,50,7.0,9.0,62,0.00,,,0.00,0.000000,,2013-01-18 12:12:00,
2013-01-18 06:22:00,40.0,28.0,-100.00,NE,50,7.0,9.0,62,0.00,,,0.00,0.000000,,2013-01-18 12:22:00,
2013-01-18 06:33:00,40.0,28.0,-100.00,NE,50,7.0,9.0,62,0.00,,,0.00,0.000000,,2013-01-18 12:33:00,
2013-01-18 06:53:00,40.0,29.0,-100.00,ENE,57,6.0,8.0,64,0.00,,,0.00,0.000000,,2013-01-18 12:53:00,
2013-01-18 07:03:00,40.0,29.0,-100.00,ENE,57,6.0,8.0,64,0.00,,,0.00,0.000000,,2013-01-18 13:03:00,
2013-01-18 07:12:00,40.0,29.0,-100.00,ENE,57,6.0,8.0,64,0.00,,,0.00,0.000000,,2013-01-18 13:12:00,
2013-01-18 07:23:00,40.0,29.0,-100.00,ENE,57,6.0,8.0,64,0.00,,,0.00,0.000000,,2013-01-18 13:23:00,
2013-01-18 07:33:00,40.0,29.0,-100.00,ENE,57,6.0,8.0,64,0.00,,,0.00,0.000000,,2013-01-18 13:33:00,
2013-01-18 08:03:00,40.0,28.0,-100.00,East,81,4.0,7.0,63,0.00,,,-99.99,1.000000,,2013-01-18 14:03:00,
2013-01-18 08:12:00,40.0,28.0,-100.00,East,81,4.0,7.0,63,0.00,,,-99.99,1.000000,,2013-01-18 14:12:00,
2013-01-18 08:23:00,40.0,28.0,-100.00,East,81,4.0,7.0,63,0.00,,,-99.99,1.000000,,2013-01-18 14:23:00,
2013-01-18 08:33:00,40.0,28.0,-100.00,East,81,4.0,7.0,63,0.00,,,-99.99,1.000000,,2013-01-18 14:33:00,
2013-01-18 09:03:00,46.0,30.0,-100.00,ESE,111,4.0,6.0,53,0.00,,,0.00,83.000000,,2013-01-18 15:03:00,
2013-01-18 09:12:00,46.0,30.0,-100.00,ESE,111,4.0,6.0,53,0.00,,,0.00,83.000000,,2013-01-18 15:12:00,
2013-01-18 09:23:00,46.0,30.0,-100.00,ESE,111,4.0,6.0,53,0.00,,,0.00,83.000000,,2013-01-18 15:23:00,
2013-01-18 09:33:00,46.0,30.0,-100.00,ESE,111,4.0,6.0,53,0.00,,,0.00,83.000000,,2013-01-18 15:33:00,
2013-01-18 09:54:00,48.0,30.0,-100.00,SSE,154,5.0,8.0,50,0.00,,,0.00,273.000000,,2013-01-18 15:54:00,
2013-01-18 10:03:00,48.0,30.0,-100.00,SSE,154,5.0,8.0,50,0.00,,,0.00,273.000000,,2013-01-18 16:03:00,
2013-01-18 10:12:00,48.0,30.0,-100.00,SSE,154,5.0,8.0,50,0.00,,,0.00,273.000000,,2013-01-18 16:12:00,
2013-01-18 10:23:00,48.0,30.0,-100.00,SSE,154,5.0,8.0,50,0.00,,,0.00,273.000000,,2013-01-18 16:23:00,
2013-01-18 10:33:00,48.0,30.0,-100.00,SSE,154,5.0,8.0,50,0.00,,,0.00,273.000000,,2013-01-18 16:33:00,
2013-01-18 11:03:00,51.0,31.0,-100.00,SSE,160,8.0,12.0,46,0.00,,,0.00,436.000000,,2013-01-18 17:03:00,
2013-01-18 11:13:00,51.0,31.0,-100.00,SSE,160,8.0,12.0,46,0.00,,,0.00,436.000000,,2013-01-18 17:13:00,
2013-01-18 11:23:00,51.0,31.0,-100.00,SSE,160,8.0,12.0,46,0.00,,,0.00,436.000000,,2013-01-18 17:23:00,
2013-01-18 11:33:00,51.0,31.0,-100.00,SSE,160,8.0,12.0,46,0.00,,,0.00,436.000000,,2013-01-18 17:33:00,
2013-01-18 11:53:00,55.0,31.0,-100.00,SSE,151,9.0,14.0,40,0.00,,,0.00,560.000000,,2013-01-18 17:53:00,
2013-01-18 12:03:00,55.0,31.0,-100.00,SSE,151,9.0,14.0,40,0.00,,,0.00,560.000000,,2013-01-18 18:03:00,
2013-01-18 12:13:00,55.0,31.0,-100.00,SSE,151,9.0,14.0,40,0.00,,,0.00,560.000000,,2013-01-18 18:13:00,
2013-01-18 12:23:00,55.0,31.0,-100.00,SSE,151,9.0,14.0,40,0.00,,,0.00,560.000000,,2013-01-18 18:23:00,
2013-01-18 12:33:00,55.0,31.0,-100.00,SSE,151,9.0,14.0,40,0.00,,,0.00,560.000000,,2013-01-18 18:33:00,
2013-01-18 12:53:00,57.0,31.0,-100.00,South,171,11.0,18.0,37,0.00,,,0.00,630.000000,,2013-01-18 18:53:00,
2013-01-18 13:03:00,57.0,31.0,-100.00,South,171,11.0,18.0,37,0.00,,,0.00,630.000000,,2013-01-18 19:03:00,
2013-01-18 13:12:00,57.0,31.0,-100.00,South,171,11.0,18.0,37,0.00,,,0.00,630.000000,,2013-01-18 19:12:00,
2013-01-18 13:23:00,57.0,31.0,-100.00,South,171,11.0,18.0,37,0.00,,,0.00,630.000000,,2013-01-18 19:23:00,
2013-01-18 13:33:00,57.0,31.0,-100.00,South,171,11.0,18.0,37,0.00,,,0.00,630.000000,,2013-01-18 19:33:00,
2013-01-18 14:03:00,60.0,32.0,-100.00,South,191,10.0,18.0,34,0.00,,,0.00,636.000000,,2013-01-18 20:03:00,
2013-01-18 14:13:00,60.0,32.0,-100.00,South,191,10.0,18.0,34,0.00,,,0.00,636.000000,,2013-01-18 20:13:00,
2013-01-18 14:23:00,60.0,32.0,-100.00,South,191,10.0,18.0,34,0.00,,,0.00,636.000000,,2013-01-18 20:23:00,
2013-01-18 14:33:00,60.0,32.0,-100.00,South,191,10.0,18.0,34,0.00,,,0.00,636.000000,,2013-01-18 20:33:00,
2013-01-18 14:53:00,63.0,31.0,-100.00,SSE,155,8.0,14.0,30,0.00,,,0.00,579.000000,,2013-01-18 20:53:00,
2013-01-18 15:03:00,63.0,31.0,-100.00,SSE,155,8.0,14.0,30,0.00,,,0.00,579.000000,,2013-01-18 21:03:00,
2013-01-18 15:13:00,63.0,31.0,-100.00,SSE,155,8.0,14.0,30,0.00,,,0.00,579.000000,,2013-01-18 21:13:00,
2013-01-18 15:23:00,63.0,31.0,-100.00,SSE,155,8.0,14.0,30,0.00,,,0.00,579.000000,,2013-01-18 21:23:00,
2013-01-18 15:33:00,63.0,31.0,-100.00,SSE,155,8.0,14.0,30,0.00,,,0.00,579.000000,,2013-01-18 21:33:00,
2013-01-18 16:03:00,63.0,29.0,-100.00,SSE,152,7.0,15.0,27,0.00,,,0.00,469.000000,,2013-01-18 22:03:00,
2013-01-18 16:12:00,63.0,29.0,-100.00,SSE,152,7.0,15.0,27,0.00,,,0.00,469.000000,,2013-01-18 22:12:00,
2013-01-18 16:23:00,63.0,29.0,-100.00,SSE,152,7.0,15.0,27,0.00,,,0.00,469.000000,,2013-01-18 22:23:00,
2013-01-18 16:32:00,63.0,29.0,-100.00,SSE,152,7.0,15.0,27,0.00,,,0.00,469.000000,,2013-01-18 22:32:00,
2013-01-18 16:53:00,62.0,28.0,-100.00,SSE,151,8.0,14.0,27,0.00,,,0.00,288.000000,,2013-01-18 22:53:00,
2013-01-18 17:03:00,62.0,28.0,-100.00,SSE,151,8.0,14.0,27,0.00,,,0.00,288.000000,,2013-01-18 23:03:00,
2013-01-18 17:12:00,62.0,28.0,-100.00,SSE,151,8.0,14.0,27,0.00,,,0.00,288.000000,,2013-01-18 23:12:00,
2013-01-18 17:22:00,62.0,28.0,-100.00,SSE,151,8.0,14.0,27,0.00,,,0.00,288.000000,,2013-01-18 23:22:00,
2013-01-18 17:33:00,62.0,28.0,-100.00,SSE,151,8.0,14.0,27,0.00,,,0.00,288.000000,,2013-01-18 23:33:00,
2013-01-18 18:02:00,59.0,29.0,-100.00,SSE,148,7.0,13.0,32,0.00,,,0.00,124.000000,,2013-01-19 00:02:00,
2013-01-18 18:12:00,59.0,29.0,-100.00,SSE,148,7.0,13.0,32,0.00,,,0.00,124.000000,,2013-01-19 00:12:00,
2013-01-18 18:22:00,59.0,29.0,-100.00,SSE,148,7.0,13.0,32,0.00,,,0.00,124.000000,,2013-01-19 00:22:00,
2013-01-18 18:33:00,59.0,29.0,-100.00,SSE,148,7.0,13.0,32,0.00,,,0.00,124.000000,,2013-01-19 00:33:00,
2013-01-18 19:02:00,54.0,30.0,-100.00,SSE,147,5.0,13.0,39,0.00,,,0.00,4.000000,,2013-01-19 01:02:00,
2013-01-18 19:12:00,54.0,30.0,-100.00,SSE,147,5.0,13.0,39,0.00,,,0.00,4.000000,,2013-01-19 01:12:00,
2013-01-18 19:22:00,54.0,30.0,-100.00,SSE,147,5.0,13.0,39,0.00,,,0.00,4.000000,,2013-01-19 01:22:00,
2013-01-18 19:32:00,54.0,30.0,-100.00,SSE,147,5.0,13.0,39,0.00,,,0.00,4.000000,,2013-01-19 01:32:00,
2013-01-18 20:02:00,52.0,30.0,-100.00,SSE,157,5.0,8.0,43,0.00,,,0.00,0.000000,,2013-01-19 02:02:00,
2013-01-18 20:12:00,52.0,30.0,-100.00,SSE,157,5.0,8.0,43,0.00,,,0.00,0.000000,,2013-01-19 02:12:00,
2013-01-18 20:22:00,52.0,30.0,-100.00,SSE,157,5.0,8.0,43,0.00,,,0.00,0.000000,,2013-01-19 02:22:00,
2013-01-18 20:33:00,52.0,30.0,-100.00,SSE,157,5.0,8.0,43,0.00,,,0.00,0.000000,,2013-01-19 02:33:00,
2013-01-18 20:53:00,51.0,30.0,-100.00,SSE,147,6.0,10.0,44,0.00,,,0.00,0.000000,,2013-01-19 02:53:00,
2013-01-18 21:03:00,51.0,30.0,-100.00,SSE,147,6.0,10.0,44,0.00,,,0.00,0.000000,,2013-01-19 03:03:00,
2013-01-18 21:12:00,51.0,30.0,-100.00,SSE,147,6.0,10.0,44,0.00,,,0.00,0.000000,,2013-01-19 03:12:00,
2013-01-18 21:22:00,51.0,30.0,-100.00,SSE,147,6.0,10.0,44,0.00,,,0.00,0.000000,,2013-01-19 03:22:00,
2013-01-18 21:33:00,51.0,30.0,-100.00,SSE,147,6.0,10.0,44,0.00,,,0.00,0.000000,,2013-01-19 03:33:00,
2013-01-18 21:53:00,50.0,31.0,-100.00,SSE,158,6.0,9.0,47,0.00,,,0.00,0.000000,,2013-01-19 03:53:00,
2013-01-18 22:02:00,50.0,31.0,-100.00,SSE,158,6.0,9.0,47,0.00,,,0.00,0.000000,,2013-01-19 04:02:00,
2013-01-18 22:12:00,50.0,31.0,-100.00,SSE,158,6.0,9.0,47,0.00,,,0.00,0.000000,,2013-01-19 04:12:00,
2013-01-18 22:22:00,50.0,31.0,-100.00,SSE,158,6.0,9.0,47,0.00,,,0.00,0.000000,,2013-01-19 04:22:00,
2013-01-18 22:32:00,50.0,31.0,-100.00,SSE,158,6.0,9.0,47,0.00,,,0.00,0.000000,,2013-01-19 04:32:00,
2013-01-18 23:03:00,48.0,30.0,-100.00,SSE,161,5.0,8.0,49,0.00,,,0.00,0.000000,,2013-01-19 05:03:00,
2013-01-18 23:12:00,48.0,30.0,-100.00,SSE,161,5.0,8.0,49,0.00,,,0.00,0.000000,,2013-01-19 05:12:00,
2013-01-18 23:23:00,48.0,30.0,-100.00,SSE,161,5.0,8.0,49,0.00,,,0.00,0.000000,,2013-01-19 05:23:00,
2013-01-18 23:33:00,48.0,30.0,-100.00,SSE,161,5.0,8.0,49,0.00,,,0.00,0.000000,,2013-01-19 05:33:00,